DHK6048 KLAX-KLAS
Flight info
| Callsign | DHK6048 |
|---|---|
| Flight time | 1h 3m |
| Altitude | 29000 |
| Route | KLAX/25L ORCKA5 MISEN RNDRZ3 KLAS/26L |
| Aircraft | A333/H-SDE/L |
Departure
| Time | 2026-05-06 21:54 |
|---|---|
| Airport | Los Angeles International Airport (KLAX) |
Arrival
| Time | 2026-05-06 22:58 |
|---|---|
| Airport | Harry Reid International Airport (KLAS) |
| Time | Latitude | Longitude | Altitude | Speed | Heading |
|---|---|---|---|---|---|
| 2026-05-06 21:19 | 33.93309 | -118.40371 | 127 ft | 0 kts | 171° |
| 2026-05-06 21:39 | 33.93319 | -118.40372 | 124 ft | 3 kts | 171° |
| 2026-05-06 21:39 | 33.93338 | -118.40374 | 127 ft | 3 kts | 164° |
| 2026-05-06 21:39 | 33.93356 | -118.40386 | 126 ft | 3 kts | 117° |
| 2026-05-06 21:39 | 33.93361 | -118.40408 | 124 ft | 1 kts | 81° |
| 2026-05-06 21:40 | 33.93360 | -118.40409 | 124 ft | 0 kts | 81° |
| 2026-05-06 21:46 | 33.93361 | -118.40408 | 124 ft | 0 kts | 81° |
| 2026-05-06 21:47 | 33.93362 | -118.40406 | 124 ft | 0 kts | 72° |
| 2026-05-06 21:47 | 33.93363 | -118.40404 | 124 ft | 1 kts | 66° |
| 2026-05-06 21:47 | 33.93367 | -118.40394 | 124 ft | 2 kts | 63° |
| 2026-05-06 21:47 | 33.93376 | -118.40373 | 125 ft | 4 kts | 62° |
| 2026-05-06 21:48 | 33.93392 | -118.40338 | 125 ft | 6 kts | 63° |
| 2026-05-06 21:48 | 33.93405 | -118.40290 | 127 ft | 7 kts | 75° |
| 2026-05-06 21:48 | 33.93415 | -118.40225 | 129 ft | 9 kts | 82° |
| 2026-05-06 21:48 | 33.93424 | -118.40144 | 125 ft | 11 kts | 82° |
| 2026-05-06 21:49 | 33.93433 | -118.40049 | 126 ft | 12 kts | 85° |
| 2026-05-06 21:49 | 33.93443 | -118.39940 | 127 ft | 14 kts | 83° |
| 2026-05-06 21:49 | 33.93455 | -118.39817 | 129 ft | 15 kts | 83° |
| 2026-05-06 21:49 | 33.93469 | -118.39687 | 128 ft | 16 kts | 83° |
| 2026-05-06 21:50 | 33.93482 | -118.39553 | 128 ft | 16 kts | 82° |
| 2026-05-06 21:50 | 33.93497 | -118.39416 | 128 ft | 17 kts | 82° |
| 2026-05-06 21:50 | 33.93511 | -118.39277 | 126 ft | 17 kts | 84° |
| 2026-05-06 21:50 | 33.93525 | -118.39134 | 127 ft | 17 kts | 82° |
| 2026-05-06 21:51 | 33.93541 | -118.38990 | 126 ft | 18 kts | 82° |
| 2026-05-06 21:51 | 33.93556 | -118.38840 | 129 ft | 18 kts | 83° |
| 2026-05-06 21:51 | 33.93571 | -118.38692 | 127 ft | 18 kts | 84° |
| 2026-05-06 21:51 | 33.93586 | -118.38541 | 129 ft | 18 kts | 82° |
| 2026-05-06 21:52 | 33.93603 | -118.38387 | 127 ft | 19 kts | 83° |
| 2026-05-06 21:52 | 33.93621 | -118.38308 | 126 ft | 9 kts | 53° |
| 2026-05-06 21:52 | 33.93635 | -118.38295 | 124 ft | 0 kts | 33° |
| 2026-05-06 21:52 | 33.93642 | -118.38290 | 124 ft | 2 kts | 31° |
| 2026-05-06 21:53 | 33.93662 | -118.38283 | 125 ft | 4 kts | 11° |
| 2026-05-06 21:53 | 33.93703 | -118.38294 | 126 ft | 8 kts | 329° |
| 2026-05-06 21:53 | 33.93728 | -118.38360 | 125 ft | 9 kts | 270° |
| 2026-05-06 21:53 | 33.93719 | -118.38451 | 128 ft | 18 kts | 263° |
| 2026-05-06 21:54 | 33.93678 | -118.38843 | 125 ft | 77 kts | 263° |
| 2026-05-06 21:54 | 33.93591 | -118.39697 | 128 ft | 127 kts | 263° |
| 2026-05-06 21:54 | 33.93472 | -118.40904 | 239 ft | 160 kts | 262° |
| 2026-05-06 21:54 | 33.93335 | -118.42248 | 781 ft | 165 kts | 260° |
| 2026-05-06 21:55 | 33.93165 | -118.43680 | 1302 ft | 181 kts | 259° |
| 2026-05-06 21:55 | 33.92986 | -118.45274 | 1672 ft | 203 kts | 262° |
| 2026-05-06 21:55 | 33.92605 | -118.47005 | 1933 ft | 227 kts | 251° |
| 2026-05-06 21:55 | 33.92000 | -118.48850 | 2290 ft | 244 kts | 248° |
| 2026-05-06 21:56 | 33.91323 | -118.50774 | 2832 ft | 255 kts | 248° |
| 2026-05-06 21:56 | 33.90611 | -118.52788 | 3394 ft | 266 kts | 248° |
| 2026-05-06 21:56 | 33.89880 | -118.54867 | 4002 ft | 274 kts | 249° |
| 2026-05-06 21:56 | 33.89138 | -118.56968 | 4742 ft | 277 kts | 248° |
| 2026-05-06 21:57 | 33.88227 | -118.59036 | 5486 ft | 281 kts | 241° |
| 2026-05-06 21:57 | 33.87174 | -118.61057 | 6176 ft | 288 kts | 233° |
| 2026-05-06 21:57 | 33.85714 | -118.62717 | 6866 ft | 292 kts | 212° |
| 2026-05-06 21:57 | 33.83810 | -118.63535 | 7622 ft | 293 kts | 183° |
| 2026-05-06 21:58 | 33.81830 | -118.63147 | 8328 ft | 290 kts | 150° |
| 2026-05-06 21:58 | 33.80320 | -118.61622 | 9100 ft | 283 kts | 120° |
| 2026-05-06 21:58 | 33.79643 | -118.59458 | 9904 ft | 275 kts | 92° |
| 2026-05-06 21:58 | 33.79864 | -118.57186 | 10440 ft | 281 kts | 68° |
| 2026-05-06 21:59 | 33.80915 | -118.55180 | 10710 ft | 298 kts | 46° |
| 2026-05-06 21:59 | 33.82525 | -118.53490 | 10990 ft | 316 kts | 39° |
| 2026-05-06 21:59 | 33.84310 | -118.51828 | 11321 ft | 331 kts | 38° |
| 2026-05-06 21:59 | 33.86153 | -118.50122 | 11860 ft | 338 kts | 38° |
| 2026-05-06 22:00 | 33.88035 | -118.48386 | 12486 ft | 342 kts | 38° |
| 2026-05-06 22:00 | 33.89941 | -118.46639 | 13127 ft | 345 kts | 37° |
| 2026-05-06 22:00 | 33.91853 | -118.44873 | 13761 ft | 349 kts | 39° |
| 2026-05-06 22:00 | 33.93559 | -118.42771 | 14319 ft | 353 kts | 51° |
| 2026-05-06 22:01 | 33.94985 | -118.40400 | 14890 ft | 355 kts | 54° |
| 2026-05-06 22:01 | 33.96396 | -118.37898 | 15481 ft | 358 kts | 54° |
| 2026-05-06 22:01 | 33.97779 | -118.35430 | 16002 ft | 361 kts | 55° |
| 2026-05-06 22:01 | 33.99198 | -118.32907 | 16530 ft | 365 kts | 54° |
| 2026-05-06 22:02 | 34.00630 | -118.30366 | 17069 ft | 368 kts | 54° |
| 2026-05-06 22:02 | 34.02074 | -118.27812 | 17632 ft | 370 kts | 54° |
| 2026-05-06 22:02 | 34.03530 | -118.25242 | 18159 ft | 373 kts | 54° |
| 2026-05-06 22:02 | 34.05001 | -118.22645 | 18635 ft | 376 kts | 54° |
| 2026-05-06 22:03 | 34.06482 | -118.20028 | 19074 ft | 378 kts | 54° |
| 2026-05-06 22:03 | 34.07968 | -118.17401 | 19546 ft | 380 kts | 54° |
| 2026-05-06 22:03 | 34.09465 | -118.14754 | 20010 ft | 383 kts | 54° |
| 2026-05-06 22:03 | 34.10969 | -118.12091 | 20460 ft | 385 kts | 54° |
| 2026-05-06 22:04 | 34.12480 | -118.09416 | 20923 ft | 387 kts | 54° |
| 2026-05-06 22:04 | 34.13983 | -118.06751 | 21384 ft | 389 kts | 54° |
| 2026-05-06 22:04 | 34.15503 | -118.04053 | 21925 ft | 388 kts | 54° |
| 2026-05-06 22:04 | 34.17023 | -118.01355 | 22382 ft | 390 kts | 54° |
| 2026-05-06 22:05 | 34.18554 | -117.98634 | 22774 ft | 392 kts | 54° |
| 2026-05-06 22:05 | 34.20093 | -117.95898 | 23094 ft | 395 kts | 54° |
| 2026-05-06 22:05 | 34.21642 | -117.93141 | 23541 ft | 396 kts | 54° |
| 2026-05-06 22:05 | 34.23195 | -117.90375 | 23883 ft | 399 kts | 54° |
| 2026-05-06 22:06 | 34.24757 | -117.87591 | 24202 ft | 402 kts | 54° |
| 2026-05-06 22:06 | 34.26330 | -117.84786 | 24533 ft | 403 kts | 54° |
| 2026-05-06 22:06 | 34.27900 | -117.81984 | 24890 ft | 404 kts | 54° |
| 2026-05-06 22:06 | 34.29483 | -117.79156 | 25191 ft | 406 kts | 54° |
| 2026-05-06 22:07 | 34.31072 | -117.76314 | 25501 ft | 408 kts | 54° |
| 2026-05-06 22:07 | 34.32664 | -117.73465 | 25825 ft | 410 kts | 54° |
| 2026-05-06 22:07 | 34.34260 | -117.70608 | 26162 ft | 411 kts | 54° |
| 2026-05-06 22:07 | 34.35899 | -117.67772 | 26503 ft | 411 kts | 53° |
| 2026-05-06 22:08 | 34.37576 | -117.64959 | 26842 ft | 413 kts | 52° |
| 2026-05-06 22:08 | 34.39264 | -117.62138 | 27177 ft | 415 kts | 52° |
| 2026-05-06 22:08 | 34.40961 | -117.59301 | 27503 ft | 416 kts | 53° |
| 2026-05-06 22:08 | 34.42664 | -117.56452 | 27805 ft | 418 kts | 53° |
| 2026-05-06 22:09 | 34.44349 | -117.53626 | 28113 ft | 419 kts | 52° |
| 2026-05-06 22:09 | 34.46059 | -117.50757 | 28511 ft | 420 kts | 52° |
| 2026-05-06 22:09 | 34.47767 | -117.47888 | 28822 ft | 422 kts | 53° |
| 2026-05-06 22:09 | 34.49489 | -117.44992 | 29077 ft | 424 kts | 53° |
| 2026-05-06 22:10 | 34.52938 | -117.39185 | 29119 ft | 424 kts | 53° |
| 2026-05-06 22:10 | 34.56405 | -117.33338 | 29121 ft | 424 kts | 53° |
| 2026-05-06 22:11 | 34.59848 | -117.27523 | 29119 ft | 424 kts | 53° |
| 2026-05-06 22:11 | 34.63267 | -117.21739 | 29100 ft | 424 kts | 53° |
| 2026-05-06 22:12 | 34.66270 | -117.15581 | 29017 ft | 429 kts | 71° |
| 2026-05-06 22:12 | 34.66703 | -117.11979 | 29014 ft | 436 kts | 87° |
| 2026-05-06 22:12 | 34.66223 | -117.08299 | 29021 ft | 446 kts | 103° |
| 2026-05-06 22:13 | 34.64856 | -117.04879 | 29024 ft | 458 kts | 120° |
| 2026-05-06 22:13 | 34.62689 | -117.01985 | 29023 ft | 470 kts | 136° |
| 2026-05-06 22:13 | 34.59873 | -116.99872 | 29024 ft | 482 kts | 152° |
| 2026-05-06 22:13 | 34.56629 | -116.98734 | 29040 ft | 492 kts | 168° |
| 2026-05-06 22:14 | 34.53179 | -116.98671 | 29027 ft | 500 kts | 185° |
| 2026-05-06 22:14 | 34.49791 | -116.99714 | 29031 ft | 506 kts | 201° |
| 2026-05-06 22:14 | 34.46756 | -117.01757 | 29038 ft | 508 kts | 217° |
| 2026-05-06 22:14 | 34.44209 | -117.04714 | 29038 ft | 507 kts | 233° |
| 2026-05-06 22:15 | 34.39968 | -117.11558 | 29035 ft | 509 kts | 232° |
| 2026-05-06 22:15 | 34.35448 | -117.18171 | 29024 ft | 510 kts | 231° |
| 2026-05-06 22:16 | 34.30903 | -117.24774 | 29056 ft | 510 kts | 231° |
| 2026-05-06 22:16 | 34.26363 | -117.31365 | 29067 ft | 510 kts | 231° |
| 2026-05-06 22:17 | 34.21889 | -117.37891 | 29060 ft | 496 kts | 231° |
| 2026-05-06 22:17 | 34.19719 | -117.41052 | 29061 ft | 481 kts | 231° |
| 2026-05-06 22:17 | 34.17610 | -117.44124 | 29059 ft | 467 kts | 231° |
| 2026-05-06 22:18 | 34.15562 | -117.47107 | 29063 ft | 453 kts | 231° |
| 2026-05-06 22:18 | 34.13572 | -117.49993 | 29062 ft | 440 kts | 231° |
| 2026-05-06 22:18 | 34.10034 | -117.55844 | 29072 ft | 427 kts | 250° |
| 2026-05-06 22:19 | 34.09278 | -117.59252 | 29073 ft | 417 kts | 270° |
| 2026-05-06 22:19 | 34.09431 | -117.62684 | 29073 ft | 405 kts | 289° |
| 2026-05-06 22:19 | 34.10445 | -117.65774 | 29084 ft | 391 kts | 307° |
| 2026-05-06 22:19 | 34.11957 | -117.68505 | 29083 ft | 388 kts | 314° |
| 2026-05-06 22:20 | 34.15808 | -117.72878 | 29081 ft | 374 kts | 335° |
| 2026-05-06 22:20 | 34.18097 | -117.74208 | 29079 ft | 367 kts | 346° |
| 2026-05-06 22:20 | 34.20553 | -117.74899 | 29081 ft | 360 kts | 358° |
| 2026-05-06 22:21 | 34.23034 | -117.74926 | 29081 ft | 354 kts | 9° |
| 2026-05-06 22:21 | 34.25428 | -117.74324 | 29077 ft | 351 kts | 21° |
| 2026-05-06 22:21 | 34.29625 | -117.71447 | 29081 ft | 348 kts | 41° |
| 2026-05-06 22:22 | 34.32813 | -117.67028 | 29061 ft | 350 kts | 51° |
| 2026-05-06 22:22 | 34.35723 | -117.62300 | 29059 ft | 350 kts | 52° |
| 2026-05-06 22:23 | 34.38615 | -117.57535 | 29048 ft | 350 kts | 52° |
| 2026-05-06 22:23 | 34.41537 | -117.52782 | 29046 ft | 357 kts | 52° |
| 2026-05-06 22:24 | 34.43033 | -117.50369 | 29042 ft | 368 kts | 51° |
| 2026-05-06 22:24 | 34.44593 | -117.47859 | 29041 ft | 378 kts | 51° |
| 2026-05-06 22:24 | 34.47841 | -117.42636 | 29109 ft | 397 kts | 51° |
| 2026-05-06 22:25 | 34.51252 | -117.37145 | 29120 ft | 415 kts | 52° |
| 2026-05-06 22:25 | 34.54770 | -117.31466 | 29108 ft | 424 kts | 52° |
| 2026-05-06 22:26 | 34.58326 | -117.25706 | 29106 ft | 436 kts | 52° |
| 2026-05-06 22:26 | 34.62026 | -117.19704 | 29084 ft | 450 kts | 52° |
| 2026-05-06 22:27 | 34.65801 | -117.13567 | 29005 ft | 454 kts | 52° |
| 2026-05-06 22:27 | 34.69574 | -117.07415 | 29015 ft | 454 kts | 52° |
| 2026-05-06 22:28 | 34.73342 | -117.01257 | 29025 ft | 454 kts | 52° |
| 2026-05-06 22:28 | 34.77103 | -116.95100 | 29032 ft | 454 kts | 52° |
| 2026-05-06 22:29 | 34.80231 | -116.89969 | 29043 ft | 454 kts | 52° |
| 2026-05-06 22:29 | 34.83988 | -116.83800 | 29038 ft | 454 kts | 52° |
| 2026-05-06 22:30 | 34.87730 | -116.77642 | 29043 ft | 441 kts | 52° |
| 2026-05-06 22:30 | 34.89517 | -116.74693 | 29045 ft | 425 kts | 52° |
| 2026-05-06 22:30 | 34.91238 | -116.71851 | 29042 ft | 409 kts | 52° |
| 2026-05-06 22:31 | 34.92896 | -116.69110 | 29040 ft | 394 kts | 52° |
| 2026-05-06 22:31 | 34.94475 | -116.66498 | 29031 ft | 380 kts | 52° |
| 2026-05-06 22:31 | 34.96019 | -116.63941 | 29023 ft | 367 kts | 52° |
| 2026-05-06 22:31 | 34.97507 | -116.61478 | 28982 ft | 355 kts | 52° |
| 2026-05-06 22:32 | 34.98962 | -116.59071 | 28709 ft | 349 kts | 52° |
| 2026-05-06 22:32 | 35.00397 | -116.56696 | 28431 ft | 347 kts | 52° |
| 2026-05-06 22:32 | 35.01826 | -116.54331 | 28191 ft | 346 kts | 52° |
| 2026-05-06 22:32 | 35.03254 | -116.51968 | 27983 ft | 346 kts | 52° |
| 2026-05-06 22:33 | 35.04686 | -116.49595 | 27644 ft | 346 kts | 52° |
| 2026-05-06 22:33 | 35.06114 | -116.47226 | 27251 ft | 344 kts | 52° |
| 2026-05-06 22:33 | 35.07527 | -116.44881 | 26883 ft | 343 kts | 52° |
| 2026-05-06 22:33 | 35.08953 | -116.42516 | 26525 ft | 361 kts | 52° |
| 2026-05-06 22:34 | 35.10564 | -116.40049 | 26108 ft | 380 kts | 47° |
| 2026-05-06 22:34 | 35.12326 | -116.37618 | 25705 ft | 384 kts | 47° |
| 2026-05-06 22:34 | 35.14109 | -116.35201 | 25289 ft | 382 kts | 47° |
| 2026-05-06 22:34 | 35.15888 | -116.32799 | 24894 ft | 379 kts | 46° |
| 2026-05-06 22:35 | 35.17653 | -116.30418 | 24466 ft | 377 kts | 46° |
| 2026-05-06 22:35 | 35.19408 | -116.28053 | 24051 ft | 373 kts | 46° |
| 2026-05-06 22:35 | 35.21146 | -116.25708 | 23639 ft | 372 kts | 46° |
| 2026-05-06 22:35 | 35.22884 | -116.23364 | 23154 ft | 371 kts | 46° |
| 2026-05-06 22:36 | 35.24613 | -116.21030 | 22726 ft | 369 kts | 46° |
| 2026-05-06 22:36 | 35.26333 | -116.18706 | 22319 ft | 367 kts | 46° |
| 2026-05-06 22:36 | 35.28045 | -116.16392 | 21869 ft | 366 kts | 46° |
| 2026-05-06 22:36 | 35.29727 | -116.14116 | 21430 ft | 363 kts | 46° |
| 2026-05-06 22:37 | 35.31416 | -116.11830 | 21030 ft | 361 kts | 46° |
| 2026-05-06 22:37 | 35.33095 | -116.09556 | 20617 ft | 359 kts | 46° |
| 2026-05-06 22:37 | 35.34765 | -116.07293 | 20218 ft | 357 kts | 46° |
| 2026-05-06 22:37 | 35.36428 | -116.05037 | 19775 ft | 355 kts | 46° |
| 2026-05-06 22:38 | 35.38082 | -116.02793 | 19381 ft | 354 kts | 46° |
| 2026-05-06 22:38 | 35.39732 | -116.00552 | 18993 ft | 353 kts | 46° |
| 2026-05-06 22:38 | 35.41370 | -115.98326 | 18583 ft | 351 kts | 46° |
| 2026-05-06 22:38 | 35.42999 | -115.96110 | 18142 ft | 349 kts | 46° |
| 2026-05-06 22:39 | 35.44595 | -115.93939 | 17857 ft | 342 kts | 47° |
| 2026-05-06 22:39 | 35.46160 | -115.91807 | 17752 ft | 330 kts | 47° |
| 2026-05-06 22:39 | 35.47670 | -115.89749 | 17640 ft | 319 kts | 47° |
| 2026-05-06 22:39 | 35.49133 | -115.87754 | 17507 ft | 309 kts | 47° |
| 2026-05-06 22:40 | 35.50551 | -115.85819 | 17367 ft | 300 kts | 47° |
| 2026-05-06 22:40 | 35.51931 | -115.83935 | 17231 ft | 292 kts | 47° |
| 2026-05-06 22:40 | 35.53276 | -115.82098 | 17097 ft | 285 kts | 47° |
| 2026-05-06 22:40 | 35.54583 | -115.80313 | 16967 ft | 277 kts | 47° |
| 2026-05-06 22:41 | 35.57142 | -115.76816 | 16403 ft | 276 kts | 47° |
| 2026-05-06 22:41 | 35.58426 | -115.75059 | 16142 ft | 275 kts | 47° |
| 2026-05-06 22:41 | 35.59713 | -115.73312 | 15897 ft | 277 kts | 47° |
| 2026-05-06 22:42 | 35.61056 | -115.71500 | 15781 ft | 292 kts | 47° |
| 2026-05-06 22:42 | 35.62436 | -115.69637 | 15626 ft | 296 kts | 47° |
| 2026-05-06 22:42 | 35.63822 | -115.67767 | 15480 ft | 295 kts | 47° |
| 2026-05-06 22:42 | 35.65198 | -115.65907 | 15329 ft | 294 kts | 47° |
| 2026-05-06 22:43 | 35.66560 | -115.64067 | 15209 ft | 293 kts | 47° |
| 2026-05-06 22:43 | 35.67930 | -115.62214 | 15046 ft | 292 kts | 47° |
| 2026-05-06 22:43 | 35.69293 | -115.60369 | 14892 ft | 291 kts | 47° |
| 2026-05-06 22:43 | 35.70653 | -115.58528 | 14749 ft | 290 kts | 47° |
| 2026-05-06 22:44 | 35.72014 | -115.56697 | 14609 ft | 290 kts | 45° |
| 2026-05-06 22:44 | 35.73553 | -115.55112 | 14460 ft | 288 kts | 33° |
| 2026-05-06 22:44 | 35.75265 | -115.53828 | 14306 ft | 288 kts | 30° |
| 2026-05-06 22:44 | 35.77008 | -115.52612 | 14162 ft | 287 kts | 30° |
| 2026-05-06 22:45 | 35.78748 | -115.51406 | 14024 ft | 287 kts | 30° |
| 2026-05-06 22:45 | 35.80489 | -115.50197 | 13886 ft | 286 kts | 30° |
| 2026-05-06 22:45 | 35.82217 | -115.48991 | 13721 ft | 285 kts | 30° |
| 2026-05-06 22:45 | 35.83944 | -115.47783 | 13562 ft | 286 kts | 29° |
| 2026-05-06 22:46 | 35.85674 | -115.46571 | 13390 ft | 286 kts | 29° |
| 2026-05-06 22:46 | 35.87405 | -115.45357 | 13131 ft | 286 kts | 29° |
| 2026-05-06 22:46 | 35.89132 | -115.44144 | 13005 ft | 285 kts | 29° |
| 2026-05-06 22:46 | 35.90837 | -115.42949 | 12991 ft | 286 kts | 29° |
| 2026-05-06 22:47 | 35.92565 | -115.41742 | 12691 ft | 284 kts | 29° |
| 2026-05-06 22:47 | 35.94277 | -115.40547 | 12390 ft | 282 kts | 29° |
| 2026-05-06 22:47 | 35.95982 | -115.39357 | 12103 ft | 280 kts | 29° |
| 2026-05-06 22:47 | 35.97671 | -115.38178 | 11824 ft | 278 kts | 29° |
| 2026-05-06 22:48 | 35.99318 | -115.36937 | 11533 ft | 277 kts | 36° |
| 2026-05-06 22:48 | 36.00648 | -115.35233 | 11270 ft | 277 kts | 56° |
| 2026-05-06 22:48 | 36.01367 | -115.33020 | 10989 ft | 279 kts | 78° |
| 2026-05-06 22:48 | 36.01451 | -115.30604 | 10704 ft | 283 kts | 88° |
| 2026-05-06 22:49 | 36.01336 | -115.28216 | 10456 ft | 281 kts | 90° |
| 2026-05-06 22:49 | 36.01194 | -115.25844 | 10380 ft | 272 kts | 90° |
| 2026-05-06 22:49 | 36.01060 | -115.23552 | 10268 ft | 263 kts | 89° |
| 2026-05-06 22:49 | 36.00938 | -115.21328 | 10154 ft | 257 kts | 89° |
| 2026-05-06 22:50 | 36.00822 | -115.19123 | 10048 ft | 258 kts | 89° |
| 2026-05-06 22:50 | 36.00709 | -115.16893 | 9837 ft | 260 kts | 89° |
| 2026-05-06 22:50 | 36.00597 | -115.14677 | 9563 ft | 258 kts | 89° |
| 2026-05-06 22:50 | 36.00485 | -115.12476 | 9305 ft | 257 kts | 89° |
| 2026-05-06 22:51 | 36.00374 | -115.10275 | 9037 ft | 255 kts | 89° |
| 2026-05-06 22:51 | 36.00263 | -115.08092 | 8767 ft | 254 kts | 90° |
| 2026-05-06 22:51 | 36.00153 | -115.05921 | 8520 ft | 253 kts | 90° |
| 2026-05-06 22:51 | 36.00043 | -115.03758 | 8265 ft | 252 kts | 90° |
| 2026-05-06 22:52 | 35.99941 | -115.01599 | 8062 ft | 250 kts | 89° |
| 2026-05-06 22:52 | 35.99885 | -114.99485 | 7864 ft | 247 kts | 88° |
| 2026-05-06 22:52 | 35.99862 | -114.97383 | 7622 ft | 243 kts | 87° |
| 2026-05-06 22:52 | 35.99861 | -114.95291 | 7360 ft | 242 kts | 85° |
| 2026-05-06 22:53 | 36.00180 | -114.93275 | 7069 ft | 239 kts | 64° |
| 2026-05-06 22:53 | 36.01115 | -114.91617 | 6792 ft | 236 kts | 43° |
| 2026-05-06 22:53 | 36.02424 | -114.90426 | 6500 ft | 234 kts | 21° |
| 2026-05-06 22:53 | 36.04016 | -114.90127 | 6173 ft | 235 kts | 352° |
| 2026-05-06 22:54 | 36.05547 | -114.90803 | 5906 ft | 234 kts | 331° |
| 2026-05-06 22:54 | 36.06664 | -114.92232 | 5597 ft | 236 kts | 299° |
| 2026-05-06 22:54 | 36.07246 | -114.94112 | 5246 ft | 233 kts | 285° |
| 2026-05-06 22:54 | 36.07404 | -114.96089 | 4908 ft | 226 kts | 271° |
| 2026-05-06 22:55 | 36.07355 | -114.97951 | 4776 ft | 208 kts | 270° |
| 2026-05-06 22:55 | 36.07347 | -114.99685 | 4501 ft | 195 kts | 272° |
| 2026-05-06 22:55 | 36.07356 | -115.01282 | 4273 ft | 183 kts | 271° |
| 2026-05-06 22:55 | 36.07352 | -115.02918 | 3648 ft | 195 kts | 271° |
| 2026-05-06 22:56 | 36.07362 | -115.04577 | 3264 ft | 193 kts | 271° |
| 2026-05-06 22:56 | 36.07364 | -115.06176 | 3092 ft | 177 kts | 271° |
| 2026-05-06 22:56 | 36.07363 | -115.07615 | 2911 ft | 160 kts | 271° |
| 2026-05-06 22:56 | 36.07363 | -115.08939 | 2704 ft | 152 kts | 271° |
| 2026-05-06 22:57 | 36.07363 | -115.10246 | 2493 ft | 152 kts | 270° |
| 2026-05-06 22:57 | 36.07362 | -115.11563 | 2269 ft | 154 kts | 269° |
| 2026-05-06 22:57 | 36.07371 | -115.12889 | 2133 ft | 151 kts | 270° |
| 2026-05-06 22:57 | 36.07364 | -115.13995 | 2128 ft | 101 kts | 270° |
| 2026-05-06 22:58 | 36.07364 | -115.14706 | 2128 ft | 79 kts | 270° |
| 2026-05-06 22:58 | 36.07384 | -115.15288 | 2128 ft | 59 kts | 284° |
| 2026-05-06 22:58 | 36.07482 | -115.15537 | 2131 ft | 8 kts | 302° |
| 2026-05-06 22:58 | 36.07483 | -115.15539 | 2131 ft | 0 kts | 302° |
| 2026-05-06 22:59 | 36.07483 | -115.15540 | 2131 ft | 0 kts | 302° |
| 2026-05-06 22:59 | 36.07485 | -115.15544 | 2131 ft | 1 kts | 302° |
| 2026-05-06 22:59 | 36.07487 | -115.15547 | 2131 ft | 0 kts | 302° |
| 2026-05-06 23:00 | 36.07487 | -115.15548 | 2125 ft | 0 kts | 302° |
| 2026-05-06 23:00 | 36.07490 | -115.15553 | 2126 ft | 2 kts | 302° |
| 2026-05-06 23:00 | 36.07500 | -115.15572 | 2131 ft | 3 kts | 306° |
| 2026-05-06 23:00 | 36.07519 | -115.15600 | 2127 ft | 6 kts | 312° |
| 2026-05-06 23:01 | 36.07564 | -115.15660 | 2128 ft | 13 kts | 313° |
| 2026-05-06 23:01 | 36.07650 | -115.15765 | 2127 ft | 22 kts | 318° |
| 2026-05-06 23:01 | 36.07787 | -115.15796 | 2128 ft | 20 kts | 47° |
| 2026-05-06 23:01 | 36.07805 | -115.15640 | 2128 ft | 18 kts | 90° |
| 2026-05-06 23:02 | 36.07804 | -115.15495 | 2131 ft | 15 kts | 91° |
| 2026-05-06 23:02 | 36.07804 | -115.15372 | 2133 ft | 14 kts | 89° |
| 2026-05-06 23:02 | 36.07805 | -115.15245 | 2131 ft | 16 kts | 90° |
| 2026-05-06 23:02 | 36.07803 | -115.15090 | 2129 ft | 20 kts | 92° |
| 2026-05-06 23:03 | 36.07792 | -115.14914 | 2129 ft | 22 kts | 95° |
| 2026-05-06 23:03 | 36.07778 | -115.14709 | 2126 ft | 26 kts | 94° |
| 2026-05-06 23:03 | 36.07762 | -115.14475 | 2126 ft | 28 kts | 95° |
| 2026-05-06 23:03 | 36.07754 | -115.14232 | 2123 ft | 29 kts | 90° |
| 2026-05-06 23:04 | 36.07754 | -115.13976 | 2127 ft | 29 kts | 90° |
| 2026-05-06 23:04 | 36.07754 | -115.13725 | 2128 ft | 30 kts | 90° |
| 2026-05-06 23:04 | 36.07754 | -115.13467 | 2130 ft | 30 kts | 89° |
| 2026-05-06 23:04 | 36.07755 | -115.13201 | 2127 ft | 32 kts | 90° |
| 2026-05-06 23:05 | 36.07755 | -115.12917 | 2126 ft | 34 kts | 90° |
| 2026-05-06 23:05 | 36.07764 | -115.12671 | 2124 ft | 14 kts | 60° |
| 2026-05-06 23:05 | 36.07866 | -115.12637 | 2117 ft | 19 kts | 1° |
| 2026-05-06 23:05 | 36.08016 | -115.12639 | 2109 ft | 25 kts | 360° |
| 2026-05-06 23:06 | 36.08117 | -115.12623 | 2100 ft | 5 kts | 54° |
| 2026-05-06 23:06 | 36.08122 | -115.12562 | 2100 ft | 9 kts | 91° |
| 2026-05-06 23:06 | 36.08122 | -115.12551 | 2100 ft | 0 kts | 91° |